sensor_id;sensor_type;location;lat;lon;timestamp;temperature;humidity
32293;DHT22;43233;48.608;8.838;2023-07-28T00:02:05;17.00;72.40
32293;DHT22;43233;48.608;8.838;2023-07-28T00:04:31;17.00;72.40
32293;DHT22;43233;48.608;8.838;2023-07-28T00:06:57;17.00;72.50
32293;DHT22;43233;48.608;8.838;2023-07-28T00:09:23;17.00;72.60
32293;DHT22;43233;48.608;8.838;2023-07-28T00:11:49;16.90;72.40
32293;DHT22;43233;48.608;8.838;2023-07-28T00:14:14;17.00;72.50
32293;DHT22;43233;48.608;8.838;2023-07-28T00:16:40;16.90;72.70
32293;DHT22;43233;48.608;8.838;2023-07-28T00:19:06;17.00;72.50
32293;DHT22;43233;48.608;8.838;2023-07-28T00:21:32;17.00;72.40
32293;DHT22;43233;48.608;8.838;2023-07-28T00:23:57;16.90;73.20
32293;DHT22;43233;48.608;8.838;2023-07-28T00:26:23;16.90;73.50
32293;DHT22;43233;48.608;8.838;2023-07-28T00:28:48;16.80;73.80
32293;DHT22;43233;48.608;8.838;2023-07-28T00:31:14;16.80;74.10
32293;DHT22;43233;48.608;8.838;2023-07-28T00:33:40;16.70;74.40
32293;DHT22;43233;48.608;8.838;2023-07-28T00:36:05;16.60;74.20
32293;DHT22;43233;48.608;8.838;2023-07-28T00:38:31;16.60;74.40
32293;DHT22;43233;48.608;8.838;2023-07-28T00:40:57;16.50;74.40
32293;DHT22;43233;48.608;8.838;2023-07-28T00:43:23;16.50;74.40
32293;DHT22;43233;48.608;8.838;2023-07-28T00:45:48;16.50;74.20
32293;DHT22;43233;48.608;8.838;2023-07-28T00:48:14;16.40;74.00
32293;DHT22;43233;48.608;8.838;2023-07-28T00:50:42;16.40;74.20
32293;DHT22;43233;48.608;8.838;2023-07-28T00:53:09;16.40;74.30
32293;DHT22;43233;48.608;8.838;2023-07-28T00:55:35;16.30;74.80
32293;DHT22;43233;48.608;8.838;2023-07-28T00:58:01;16.30;75.10
32293;DHT22;43233;48.608;8.838;2023-07-28T01:00:26;16.30;75.20
32293;DHT22;43233;48.608;8.838;2023-07-28T01:02:52;16.30;75.40
32293;DHT22;43233;48.608;8.838;2023-07-28T01:05:19;16.30;75.40
32293;DHT22;43233;48.608;8.838;2023-07-28T01:10:26;16.30;76.20
32293;DHT22;43233;48.608;8.838;2023-07-28T01:12:53;16.30;76.20
32293;DHT22;43233;48.608;8.838;2023-07-28T01:15:18;16.30;75.40
32293;DHT22;43233;48.608;8.838;2023-07-28T01:17:44;16.30;75.50
32293;DHT22;43233;48.608;8.838;2023-07-28T01:20:10;16.20;75.90
32293;DHT22;43233;48.608;8.838;2023-07-28T01:28:23;16.10;76.60
32293;DHT22;43233;48.608;8.838;2023-07-28T01:30:49;16.10;76.50
32293;DHT22;43233;48.608;8.838;2023-07-28T01:33:14;16.10;76.90
32293;DHT22;43233;48.608;8.838;2023-07-28T01:35:40;16.00;76.20
32293;DHT22;43233;48.608;8.838;2023-07-28T01:38:06;16.00;76.10
32293;DHT22;43233;48.608;8.838;2023-07-28T01:40:31;16.00;76.20
32293;DHT22;43233;48.608;8.838;2023-07-28T01:42:57;15.90;76.20
32293;DHT22;43233;48.608;8.838;2023-07-28T01:45:23;15.80;76.50
32293;DHT22;43233;48.608;8.838;2023-07-28T01:47:48;15.80;76.90
32293;DHT22;43233;48.608;8.838;2023-07-28T01:50:14;15.70;77.10
32293;DHT22;43233;48.608;8.838;2023-07-28T01:52:40;15.70;78.40
32293;DHT22;43233;48.608;8.838;2023-07-28T01:55:06;15.70;78.80
32293;DHT22;43233;48.608;8.838;2023-07-28T01:57:35;15.70;79.40
32293;DHT22;43233;48.608;8.838;2023-07-28T02:00:01;15.80;79.60
32293;DHT22;43233;48.608;8.838;2023-07-28T02:02:28;15.80;80.30
32293;DHT22;43233;48.608;8.838;2023-07-28T02:04:54;15.80;80.10
32293;DHT22;43233;48.608;8.838;2023-07-28T02:07:20;15.80;79.50
32293;DHT22;43233;48.608;8.838;2023-07-28T02:09:45;15.80;80.30
32293;DHT22;43233;48.608;8.838;2023-07-28T02:12:11;15.90;80.10
32293;DHT22;43233;48.608;8.838;2023-07-28T02:14:36;15.80;80.00
32293;DHT22;43233;48.608;8.838;2023-07-28T02:17:02;15.70;80.00
32293;DHT22;43233;48.608;8.838;2023-07-28T02:19:28;15.70;80.30
32293;DHT22;43233;48.608;8.838;2023-07-28T02:21:53;15.70;80.10
32293;DHT22;43233;48.608;8.838;2023-07-28T02:24:19;15.80;79.80
32293;DHT22;43233;48.608;8.838;2023-07-28T02:26:44;15.70;80.20
32293;DHT22;43233;48.608;8.838;2023-07-28T02:29:10;15.80;79.70
32293;DHT22;43233;48.608;8.838;2023-07-28T02:31:36;15.80;79.10
32293;DHT22;43233;48.608;8.838;2023-07-28T02:34:01;15.80;79.10
32293;DHT22;43233;48.608;8.838;2023-07-28T02:36:27;15.80;79.20
32293;DHT22;43233;48.608;8.838;2023-07-28T02:38:52;15.80;79.10
32293;DHT22;43233;48.608;8.838;2023-07-28T02:41:18;15.80;78.80
32293;DHT22;43233;48.608;8.838;2023-07-28T02:43:44;15.80;79.30
32293;DHT22;43233;48.608;8.838;2023-07-28T02:46:09;15.80;79.50
32293;DHT22;43233;48.608;8.838;2023-07-28T02:48:35;15.70;80.40
32293;DHT22;43233;48.608;8.838;2023-07-28T02:51:00;15.80;80.90
32293;DHT22;43233;48.608;8.838;2023-07-28T02:53:26;15.80;80.90
32293;DHT22;43233;48.608;8.838;2023-07-28T02:55:52;15.80;81.60
32293;DHT22;43233;48.608;8.838;2023-07-28T02:58:17;15.80;82.80
32293;DHT22;43233;48.608;8.838;2023-07-28T03:00:43;15.80;83.00
32293;DHT22;43233;48.608;8.838;2023-07-28T03:03:12;15.90;83.50
32293;DHT22;43233;48.608;8.838;2023-07-28T03:05:39;15.90;83.80
32293;DHT22;43233;48.608;8.838;2023-07-28T03:08:05;15.90;84.10
32293;DHT22;43233;48.608;8.838;2023-07-28T03:10:31;16.00;84.10
32293;DHT22;43233;48.608;8.838;2023-07-28T03:12:57;16.00;84.30
32293;DHT22;43233;48.608;8.838;2023-07-28T03:15:23;16.00;84.00
32293;DHT22;43233;48.608;8.838;2023-07-28T03:17:49;16.10;84.10
32293;DHT22;43233;48.608;8.838;2023-07-28T03:20:16;16.10;84.00
32293;DHT22;43233;48.608;8.838;2023-07-28T03:22:42;16.20;84.00
32293;DHT22;43233;48.608;8.838;2023-07-28T03:25:08;16.20;84.50
32293;DHT22;43233;48.608;8.838;2023-07-28T03:27:34;16.30;84.20
32293;DHT22;43233;48.608;8.838;2023-07-28T03:30:00;16.40;84.00
32293;DHT22;43233;48.608;8.838;2023-07-28T03:32:26;16.50;83.40
32293;DHT22;43233;48.608;8.838;2023-07-28T03:34:51;16.60;82.80
32293;DHT22;43233;48.608;8.838;2023-07-28T03:37:17;16.70;82.50
32293;DHT22;43233;48.608;8.838;2023-07-28T03:39:43;16.70;82.10
32293;DHT22;43233;48.608;8.838;2023-07-28T03:42:09;16.80;81.70
32293;DHT22;43233;48.608;8.838;2023-07-28T03:44:34;16.90;81.20
32293;DHT22;43233;48.608;8.838;2023-07-28T03:47:03;16.90;81.00
32293;DHT22;43233;48.608;8.838;2023-07-28T03:49:29;17.00;80.20
32293;DHT22;43233;48.608;8.838;2023-07-28T03:51:55;17.00;80.30
32293;DHT22;43233;48.608;8.838;2023-07-28T03:54:21;17.10;80.10
32293;DHT22;43233;48.608;8.838;2023-07-28T03:56:47;17.10;79.80
32293;DHT22;43233;48.608;8.838;2023-07-28T03:59:12;17.10;79.50
32293;DHT22;43233;48.608;8.838;2023-07-28T04:01:38;17.10;79.70
32293;DHT22;43233;48.608;8.838;2023-07-28T04:04:04;17.20;79.20
32293;DHT22;43233;48.608;8.838;2023-07-28T04:06:46;17.20;79.30
32293;DHT22;43233;48.608;8.838;2023-07-28T04:09:15;17.20;78.60
32293;DHT22;43233;48.608;8.838;2023-07-28T04:11:41;17.20;78.90
32293;DHT22;43233;48.608;8.838;2023-07-28T04:14:07;17.20;78.80
32293;DHT22;43233;48.608;8.838;2023-07-28T04:16:33;17.30;78.90
32293;DHT22;43233;48.608;8.838;2023-07-28T04:18:59;17.30;78.80
32293;DHT22;43233;48.608;8.838;2023-07-28T04:21:25;17.40;78.40
32293;DHT22;43233;48.608;8.838;2023-07-28T04:23:51;17.40;78.10
32293;DHT22;43233;48.608;8.838;2023-07-28T04:26:17;17.40;77.60
32293;DHT22;43233;48.608;8.838;2023-07-28T04:28:43;17.50;77.80
32293;DHT22;43233;48.608;8.838;2023-07-28T04:31:08;17.50;78.10
32293;DHT22;43233;48.608;8.838;2023-07-28T04:33:34;17.50;78.20
32293;DHT22;43233;48.608;8.838;2023-07-28T04:36:02;17.50;77.60
32293;DHT22;43233;48.608;8.838;2023-07-28T04:38:28;17.50;77.50
32293;DHT22;43233;48.608;8.838;2023-07-28T04:40:54;17.60;77.60
32293;DHT22;43233;48.608;8.838;2023-07-28T04:43:20;17.60;76.90
32293;DHT22;43233;48.608;8.838;2023-07-28T04:45:45;17.60;77.10
32293;DHT22;43233;48.608;8.838;2023-07-28T04:48:11;17.60;77.00
32293;DHT22;43233;48.608;8.838;2023-07-28T04:50:37;17.70;76.90
32293;DHT22;43233;48.608;8.838;2023-07-28T04:53:03;17.70;76.50
32293;DHT22;43233;48.608;8.838;2023-07-28T04:55:29;17.70;76.70
32293;DHT22;43233;48.608;8.838;2023-07-28T04:57:55;17.70;76.60
32293;DHT22;43233;48.608;8.838;2023-07-28T05:00:21;17.70;76.20
32293;DHT22;43233;48.608;8.838;2023-07-28T05:02:47;17.70;76.70
32293;DHT22;43233;48.608;8.838;2023-07-28T05:05:12;17.80;76.40
32293;DHT22;43233;48.608;8.838;2023-07-28T05:07:38;17.80;76.50
32293;DHT22;43233;48.608;8.838;2023-07-28T05:10:04;17.80;76.30
32293;DHT22;43233;48.608;8.838;2023-07-28T05:12:30;17.80;76.10
32293;DHT22;43233;48.608;8.838;2023-07-28T05:14:55;17.90;76.10
32293;DHT22;43233;48.608;8.838;2023-07-28T05:17:21;17.90;76.00
32293;DHT22;43233;48.608;8.838;2023-07-28T05:19:47;17.90;75.80
32293;DHT22;43233;48.608;8.838;2023-07-28T05:22:12;17.90;76.00
32293;DHT22;43233;48.608;8.838;2023-07-28T05:24:38;18.00;75.60
32293;DHT22;43233;48.608;8.838;2023-07-28T05:27:04;18.00;75.70
32293;DHT22;43233;48.608;8.838;2023-07-28T05:29:30;18.00;76.00
32293;DHT22;43233;48.608;8.838;2023-07-28T05:31:58;18.00;76.10
32293;DHT22;43233;48.608;8.838;2023-07-28T05:34:25;18.10;76.80
32293;DHT22;43233;48.608;8.838;2023-07-28T05:36:51;18.10;76.20
32293;DHT22;43233;48.608;8.838;2023-07-28T05:39:16;18.00;76.50
32293;DHT22;43233;48.608;8.838;2023-07-28T05:41:42;18.10;76.50
32293;DHT22;43233;48.608;8.838;2023-07-28T05:44:08;18.10;76.90
32293;DHT22;43233;48.608;8.838;2023-07-28T05:46:33;18.10;77.10
32293;DHT22;43233;48.608;8.838;2023-07-28T05:48:59;18.00;76.80
32293;DHT22;43233;48.608;8.838;2023-07-28T05:51:25;18.00;77.20
32293;DHT22;43233;48.608;8.838;2023-07-28T05:53:51;18.00;77.80
32293;DHT22;43233;48.608;8.838;2023-07-28T05:56:17;18.00;78.40
32293;DHT22;43233;48.608;8.838;2023-07-28T05:58:44;18.00;78.80
32293;DHT22;43233;48.608;8.838;2023-07-28T06:01:10;18.00;78.70
32293;DHT22;43233;48.608;8.838;2023-07-28T06:03:36;17.90;79.50
32293;DHT22;43233;48.608;8.838;2023-07-28T06:06:01;17.90;79.90
32293;DHT22;43233;48.608;8.838;2023-07-28T06:08:28;17.90;80.30
32293;DHT22;43233;48.608;8.838;2023-07-28T06:10:54;17.90;81.30
32293;DHT22;43233;48.608;8.838;2023-07-28T06:13:20;17.90;83.20
32293;DHT22;43233;48.608;8.838;2023-07-28T06:15:47;17.90;83.50
32293;DHT22;43233;48.608;8.838;2023-07-28T06:18:13;17.80;82.90
32293;DHT22;43233;48.608;8.838;2023-07-28T06:20:42;17.70;82.50
32293;DHT22;43233;48.608;8.838;2023-07-28T06:23:08;17.60;82.40
32293;DHT22;43233;48.608;8.838;2023-07-28T06:25:34;17.50;83.00
32293;DHT22;43233;48.608;8.838;2023-07-28T06:27:59;17.50;83.00
32293;DHT22;43233;48.608;8.838;2023-07-28T06:30:25;17.40;83.00
32293;DHT22;43233;48.608;8.838;2023-07-28T06:32:51;17.40;83.20
32293;DHT22;43233;48.608;8.838;2023-07-28T06:35:17;17.40;83.60
32293;DHT22;43233;48.608;8.838;2023-07-28T06:37:42;17.40;82.60
32293;DHT22;43233;48.608;8.838;2023-07-28T06:40:08;17.50;83.00
32293;DHT22;43233;48.608;8.838;2023-07-28T06:42:35;17.50;82.50
32293;DHT22;43233;48.608;8.838;2023-07-28T06:45:04;17.60;82.20
32293;DHT22;43233;48.608;8.838;2023-07-28T06:47:30;17.70;81.90
32293;DHT22;43233;48.608;8.838;2023-07-28T06:49:56;17.80;81.20
32293;DHT22;43233;48.608;8.838;2023-07-28T06:52:21;17.90;80.70
32293;DHT22;43233;48.608;8.838;2023-07-28T06:54:47;18.00;79.80
32293;DHT22;43233;48.608;8.838;2023-07-28T06:57:15;18.10;80.10
32293;DHT22;43233;48.608;8.838;2023-07-28T06:59:41;18.10;79.80
32293;DHT22;43233;48.608;8.838;2023-07-28T07:02:07;18.20;79.60
32293;DHT22;43233;48.608;8.838;2023-07-28T07:04:32;18.20;79.80
32293;DHT22;43233;48.608;8.838;2023-07-28T07:06:58;18.30;80.10
32293;DHT22;43233;48.608;8.838;2023-07-28T07:09:23;18.40;80.20
32293;DHT22;43233;48.608;8.838;2023-07-28T07:11:50;18.50;78.90
32293;DHT22;43233;48.608;8.838;2023-07-28T07:14:16;18.60;78.20
32293;DHT22;43233;48.608;8.838;2023-07-28T07:16:42;18.60;78.20
32293;DHT22;43233;48.608;8.838;2023-07-28T07:19:07;18.60;78.60
32293;DHT22;43233;48.608;8.838;2023-07-28T07:21:34;18.70;77.70
32293;DHT22;43233;48.608;8.838;2023-07-28T07:24:00;18.70;77.30
32293;DHT22;43233;48.608;8.838;2023-07-28T07:26:26;18.80;77.20
32293;DHT22;43233;48.608;8.838;2023-07-28T07:28:52;18.80;76.70
32293;DHT22;43233;48.608;8.838;2023-07-28T07:31:18;18.80;77.20
32293;DHT22;43233;48.608;8.838;2023-07-28T07:33:44;18.80;77.60
32293;DHT22;43233;48.608;8.838;2023-07-28T07:36:17;18.90;76.70
32293;DHT22;43233;48.608;8.838;2023-07-28T07:38:43;18.90;76.50
32293;DHT22;43233;48.608;8.838;2023-07-28T07:41:13;19.00;76.40
32293;DHT22;43233;48.608;8.838;2023-07-28T07:43:44;19.00;75.70
32293;DHT22;43233;48.608;8.838;2023-07-28T07:46:10;19.10;75.90
32293;DHT22;43233;48.608;8.838;2023-07-28T07:48:36;19.10;76.20
32293;DHT22;43233;48.608;8.838;2023-07-28T07:51:01;19.20;74.90
32293;DHT22;43233;48.608;8.838;2023-07-28T07:53:27;19.20;74.70
32293;DHT22;43233;48.608;8.838;2023-07-28T07:55:53;19.30;74.50
32293;DHT22;43233;48.608;8.838;2023-07-28T07:58:18;19.30;74.60
32293;DHT22;43233;48.608;8.838;2023-07-28T08:00:44;19.40;73.60
32293;DHT22;43233;48.608;8.838;2023-07-28T08:03:10;19.40;72.70
32293;DHT22;43233;48.608;8.838;2023-07-28T08:05:35;19.50;73.10
32293;DHT22;43233;48.608;8.838;2023-07-28T08:08:01;19.60;72.90
32293;DHT22;43233;48.608;8.838;2023-07-28T08:10:27;19.70;70.80
32293;DHT22;43233;48.608;8.838;2023-07-28T08:12:54;19.70;71.60
32293;DHT22;43233;48.608;8.838;2023-07-28T08:15:20;19.80;69.70
32293;DHT22;43233;48.608;8.838;2023-07-28T08:17:46;19.90;70.20
32293;DHT22;43233;48.608;8.838;2023-07-28T08:20:12;20.00;69.00
32293;DHT22;43233;48.608;8.838;2023-07-28T08:22:38;20.00;68.10
32293;DHT22;43233;48.608;8.838;2023-07-28T08:25:04;20.00;66.40
32293;DHT22;43233;48.608;8.838;2023-07-28T08:27:30;20.00;68.10
32293;DHT22;43233;48.608;8.838;2023-07-28T08:29:56;20.00;65.90
32293;DHT22;43233;48.608;8.838;2023-07-28T08:32:22;20.00;66.60
32293;DHT22;43233;48.608;8.838;2023-07-28T08:34:48;20.10;65.90
32293;DHT22;43233;48.608;8.838;2023-07-28T08:37:13;20.20;66.70
32293;DHT22;43233;48.608;8.838;2023-07-28T08:39:39;20.30;65.50
32293;DHT22;43233;48.608;8.838;2023-07-28T08:42:05;20.30;65.90
32293;DHT22;43233;48.608;8.838;2023-07-28T08:44:33;20.30;65.10
32293;DHT22;43233;48.608;8.838;2023-07-28T08:47:03;20.30;65.70
32293;DHT22;43233;48.608;8.838;2023-07-28T08:49:32;20.40;65.80
32293;DHT22;43233;48.608;8.838;2023-07-28T08:52:00;20.50;64.40
32293;DHT22;43233;48.608;8.838;2023-07-28T08:54:27;20.70;64.00
32293;DHT22;43233;48.608;8.838;2023-07-28T08:56:53;20.70;60.20
32293;DHT22;43233;48.608;8.838;2023-07-28T08:59:26;20.80;60.10
32293;DHT22;43233;48.608;8.838;2023-07-28T09:01:53;20.80;58.50
32293;DHT22;43233;48.608;8.838;2023-07-28T09:04:20;20.90;59.10
32293;DHT22;43233;48.608;8.838;2023-07-28T09:06:47;20.90;57.80
32293;DHT22;43233;48.608;8.838;2023-07-28T09:09:14;20.90;58.60
32293;DHT22;43233;48.608;8.838;2023-07-28T09:11:51;21.00;58.10
32293;DHT22;43233;48.608;8.838;2023-07-28T09:14:18;21.00;57.90
32293;DHT22;43233;48.608;8.838;2023-07-28T09:16:45;21.00;56.20
32293;DHT22;43233;48.608;8.838;2023-07-28T09:19:11;21.00;58.70
32293;DHT22;43233;48.608;8.838;2023-07-28T09:21:42;21.10;54.70
32293;DHT22;43233;48.608;8.838;2023-07-28T09:24:09;21.10;56.00
32293;DHT22;43233;48.608;8.838;2023-07-28T09:29:14;21.10;56.70
32293;DHT22;43233;48.608;8.838;2023-07-28T09:31:47;21.30;58.10
32293;DHT22;43233;48.608;8.838;2023-07-28T09:34:24;21.40;55.80
32293;DHT22;43233;48.608;8.838;2023-07-28T09:36:56;21.50;55.90
32293;DHT22;43233;48.608;8.838;2023-07-28T09:39:23;21.30;55.10
32293;DHT22;43233;48.608;8.838;2023-07-28T09:41:49;21.30;55.50
32293;DHT22;43233;48.608;8.838;2023-07-28T09:44:15;21.30;55.80
32293;DHT22;43233;48.608;8.838;2023-07-28T09:47:00;21.30;56.60
32293;DHT22;43233;48.608;8.838;2023-07-28T09:49:35;21.30;56.70
32293;DHT22;43233;48.608;8.838;2023-07-28T09:52:08;21.30;56.10
32293;DHT22;43233;48.608;8.838;2023-07-28T09:54:40;21.20;56.20
32293;DHT22;43233;48.608;8.838;2023-07-28T09:57:13;21.20;57.00
32293;DHT22;43233;48.608;8.838;2023-07-28T09:59:40;21.30;56.40
32293;DHT22;43233;48.608;8.838;2023-07-28T10:02:07;21.40;57.10
32293;DHT22;43233;48.608;8.838;2023-07-28T10:04:33;21.60;56.10
32293;DHT22;43233;48.608;8.838;2023-07-28T10:06:59;21.70;56.50
32293;DHT22;43233;48.608;8.838;2023-07-28T10:09:27;21.70;55.30
32293;DHT22;43233;48.608;8.838;2023-07-28T10:11:54;21.70;55.40
32293;DHT22;43233;48.608;8.838;2023-07-28T10:14:59;21.60;54.90
32293;DHT22;43233;48.608;8.838;2023-07-28T10:17:34;21.50;54.90
32293;DHT22;43233;48.608;8.838;2023-07-28T10:20:29;21.50;55.30
32293;DHT22;43233;48.608;8.838;2023-07-28T10:25:38;21.50;57.30
32293;DHT22;43233;48.608;8.838;2023-07-28T10:28:27;21.50;56.70
32293;DHT22;43233;48.608;8.838;2023-07-28T10:30:58;21.50;57.00
32293;DHT22;43233;48.608;8.838;2023-07-28T10:38:39;21.60;56.70
32293;DHT22;43233;48.608;8.838;2023-07-28T10:41:06;21.60;56.20
32293;DHT22;43233;48.608;8.838;2023-07-28T10:43:33;21.70;57.80
32293;DHT22;43233;48.608;8.838;2023-07-28T10:45:59;21.70;57.70
32293;DHT22;43233;48.608;8.838;2023-07-28T10:48:25;21.80;57.10
32293;DHT22;43233;48.608;8.838;2023-07-28T10:50:51;21.90;56.70
32293;DHT22;43233;48.608;8.838;2023-07-28T10:53:17;21.90;55.00
32293;DHT22;43233;48.608;8.838;2023-07-28T10:55:43;21.90;55.10
32293;DHT22;43233;48.608;8.838;2023-07-28T10:58:09;21.90;54.70
32293;DHT22;43233;48.608;8.838;2023-07-28T11:00:35;21.90;55.40
32293;DHT22;43233;48.608;8.838;2023-07-28T11:03:01;21.90;55.40
32293;DHT22;43233;48.608;8.838;2023-07-28T11:05:29;21.90;54.40
32293;DHT22;43233;48.608;8.838;2023-07-28T11:07:57;21.80;53.40
32293;DHT22;43233;48.608;8.838;2023-07-28T11:10:24;21.70;54.10
32293;DHT22;43233;48.608;8.838;2023-07-28T11:12:52;21.70;55.50
32293;DHT22;43233;48.608;8.838;2023-07-28T11:15:18;21.60;55.20
32293;DHT22;43233;48.608;8.838;2023-07-28T11:17:47;21.50;56.00
32293;DHT22;43233;48.608;8.838;2023-07-28T11:20:26;21.30;57.60
32293;DHT22;43233;48.608;8.838;2023-07-28T11:23:02;21.20;55.80
32293;DHT22;43233;48.608;8.838;2023-07-28T11:25:31;21.20;57.50
32293;DHT22;43233;48.608;8.838;2023-07-28T11:28:00;21.10;60.40
32293;DHT22;43233;48.608;8.838;2023-07-28T11:30:26;21.10;64.40
32293;DHT22;43233;48.608;8.838;2023-07-28T11:32:52;20.90;65.60
32293;DHT22;43233;48.608;8.838;2023-07-28T11:35:20;20.80;66.90
32293;DHT22;43233;48.608;8.838;2023-07-28T11:37:49;20.70;68.50
32293;DHT22;43233;48.608;8.838;2023-07-28T11:40:21;20.80;70.30
32293;DHT22;43233;48.608;8.838;2023-07-28T11:42:52;20.80;71.90
32293;DHT22;43233;48.608;8.838;2023-07-28T11:45:19;20.80;70.40
32293;DHT22;43233;48.608;8.838;2023-07-28T11:47:55;20.90;72.20
32293;DHT22;43233;48.608;8.838;2023-07-28T11:50:41;21.00;70.40
32293;DHT22;43233;48.608;8.838;2023-07-28T11:53:07;21.10;69.50
32293;DHT22;43233;48.608;8.838;2023-07-28T11:55:35;21.20;67.70
32293;DHT22;43233;48.608;8.838;2023-07-28T11:58:02;21.10;68.50
32293;DHT22;43233;48.608;8.838;2023-07-28T12:00:34;21.30;66.70
32293;DHT22;43233;48.608;8.838;2023-07-28T12:03:10;21.30;67.00
32293;DHT22;43233;48.608;8.838;2023-07-28T12:05:58;21.40;66.20
32293;DHT22;43233;48.608;8.838;2023-07-28T12:08:37;21.40;66.70
32293;DHT22;43233;48.608;8.838;2023-07-28T12:11:03;21.50;66.10
32293;DHT22;43233;48.608;8.838;2023-07-28T12:13:29;21.60;66.10
32293;DHT22;43233;48.608;8.838;2023-07-28T12:15:55;21.60;66.90
32293;DHT22;43233;48.608;8.838;2023-07-28T12:18:20;21.60;64.70
32293;DHT22;43233;48.608;8.838;2023-07-28T12:20:51;21.70;65.00
32293;DHT22;43233;48.608;8.838;2023-07-28T12:23:21;21.70;65.30
32293;DHT22;43233;48.608;8.838;2023-07-28T12:25:47;21.60;62.70
32293;DHT22;43233;48.608;8.838;2023-07-28T12:28:13;21.70;64.50
32293;DHT22;43233;48.608;8.838;2023-07-28T12:30:40;21.70;65.60
32293;DHT22;43233;48.608;8.838;2023-07-28T12:33:06;21.80;65.70
32293;DHT22;43233;48.608;8.838;2023-07-28T12:35:33;21.90;63.00
32293;DHT22;43233;48.608;8.838;2023-07-28T12:38:04;21.90;62.10
32293;DHT22;43233;48.608;8.838;2023-07-28T12:40:31;21.90;61.00
32293;DHT22;43233;48.608;8.838;2023-07-28T12:42:58;21.90;61.80
32293;DHT22;43233;48.608;8.838;2023-07-28T12:45:24;21.90;60.70
32293;DHT22;43233;48.608;8.838;2023-07-28T12:47:55;21.80;62.20
32293;DHT22;43233;48.608;8.838;2023-07-28T12:50:21;21.70;63.80
32293;DHT22;43233;48.608;8.838;2023-07-28T12:52:51;21.70;65.40
32293;DHT22;43233;48.608;8.838;2023-07-28T12:55:17;21.60;64.50
32293;DHT22;43233;48.608;8.838;2023-07-28T12:57:44;21.60;65.20
32293;DHT22;43233;48.608;8.838;2023-07-28T13:00:10;21.50;66.80
32293;DHT22;43233;48.608;8.838;2023-07-28T13:02:43;21.50;66.80
32293;DHT22;43233;48.608;8.838;2023-07-28T13:05:09;21.50;67.10
32293;DHT22;43233;48.608;8.838;2023-07-28T13:07:38;21.50;67.20
32293;DHT22;43233;48.608;8.838;2023-07-28T13:10:07;21.50;66.70
32293;DHT22;43233;48.608;8.838;2023-07-28T13:12:34;21.50;67.40
32293;DHT22;43233;48.608;8.838;2023-07-28T13:15:00;21.50;66.60
32293;DHT22;43233;48.608;8.838;2023-07-28T13:17:25;21.50;67.10
32293;DHT22;43233;48.608;8.838;2023-07-28T13:19:51;21.40;66.20
32293;DHT22;43233;48.608;8.838;2023-07-28T13:22:17;21.30;66.50
32293;DHT22;43233;48.608;8.838;2023-07-28T13:24:43;21.30;67.30
32293;DHT22;43233;48.608;8.838;2023-07-28T13:27:09;21.20;67.60
32293;DHT22;43233;48.608;8.838;2023-07-28T13:29:35;21.20;67.10
32293;DHT22;43233;48.608;8.838;2023-07-28T13:32:00;21.20;67.40
32293;DHT22;43233;48.608;8.838;2023-07-28T13:34:27;21.10;68.10
32293;DHT22;43233;48.608;8.838;2023-07-28T13:36:56;21.00;67.90
32293;DHT22;43233;48.608;8.838;2023-07-28T13:39:22;20.80;68.70
32293;DHT22;43233;48.608;8.838;2023-07-28T13:41:48;20.70;70.40
32293;DHT22;43233;48.608;8.838;2023-07-28T13:44:15;20.50;71.50
32293;DHT22;43233;48.608;8.838;2023-07-28T13:46:41;20.40;74.30
32293;DHT22;43233;48.608;8.838;2023-07-28T13:49:06;20.30;75.70
32293;DHT22;43233;48.608;8.838;2023-07-28T13:51:32;20.30;78.00
32293;DHT22;43233;48.608;8.838;2023-07-28T13:53:58;20.30;78.70
32293;DHT22;43233;48.608;8.838;2023-07-28T13:56:23;20.30;78.70
32293;DHT22;43233;48.608;8.838;2023-07-28T13:58:49;20.40;79.60
32293;DHT22;43233;48.608;8.838;2023-07-28T14:01:15;20.40;80.20
32293;DHT22;43233;48.608;8.838;2023-07-28T14:03:40;20.50;80.20
32293;DHT22;43233;48.608;8.838;2023-07-28T14:06:07;20.60;79.50
32293;DHT22;43233;48.608;8.838;2023-07-28T14:08:32;20.60;80.20
32293;DHT22;43233;48.608;8.838;2023-07-28T14:10:58;20.60;79.60
32293;DHT22;43233;48.608;8.838;2023-07-28T14:13:23;20.60;80.10
32293;DHT22;43233;48.608;8.838;2023-07-28T14:15:50;20.50;80.60
32293;DHT22;43233;48.608;8.838;2023-07-28T14:18:17;20.60;80.80
32293;DHT22;43233;48.608;8.838;2023-07-28T14:20:42;20.50;80.30
32293;DHT22;43233;48.608;8.838;2023-07-28T14:23:27;20.40;79.10
32293;DHT22;43233;48.608;8.838;2023-07-28T14:25:54;20.30;80.30
32293;DHT22;43233;48.608;8.838;2023-07-28T14:28:20;20.20;79.30
32293;DHT22;43233;48.608;8.838;2023-07-28T14:30:47;20.20;80.40
32293;DHT22;43233;48.608;8.838;2023-07-28T14:33:16;20.10;80.40
32293;DHT22;43233;48.608;8.838;2023-07-28T14:35:46;20.20;80.30
32293;DHT22;43233;48.608;8.838;2023-07-28T14:38:12;20.30;79.00
32293;DHT22;43233;48.608;8.838;2023-07-28T14:40:38;20.30;78.70
32293;DHT22;43233;48.608;8.838;2023-07-28T14:43:08;20.30;76.50
32293;DHT22;43233;48.608;8.838;2023-07-28T14:45:34;20.30;76.20
32293;DHT22;43233;48.608;8.838;2023-07-28T14:48:01;20.30;77.60
32293;DHT22;43233;48.608;8.838;2023-07-28T14:50:26;20.30;78.60
32293;DHT22;43233;48.608;8.838;2023-07-28T14:52:53;20.30;77.00
32293;DHT22;43233;48.608;8.838;2023-07-28T14:55:18;20.30;77.10
32293;DHT22;43233;48.608;8.838;2023-07-28T14:57:44;20.30;78.80
32293;DHT22;43233;48.608;8.838;2023-07-28T15:00:10;20.40;79.80
32293;DHT22;43233;48.608;8.838;2023-07-28T15:02:36;20.40;79.20
32293;DHT22;43233;48.608;8.838;2023-07-28T15:05:02;20.50;78.50
32293;DHT22;43233;48.608;8.838;2023-07-28T15:07:28;20.50;79.20
32293;DHT22;43233;48.608;8.838;2023-07-28T15:09:54;20.60;77.30
32293;DHT22;43233;48.608;8.838;2023-07-28T15:12:19;20.60;75.30
32293;DHT22;43233;48.608;8.838;2023-07-28T15:14:45;20.50;76.10
32293;DHT22;43233;48.608;8.838;2023-07-28T15:17:14;20.50;76.90
32293;DHT22;43233;48.608;8.838;2023-07-28T15:19:39;20.40;77.60
32293;DHT22;43233;48.608;8.838;2023-07-28T15:22:05;20.30;78.90
32293;DHT22;43233;48.608;8.838;2023-07-28T15:24:31;20.30;79.20
32293;DHT22;43233;48.608;8.838;2023-07-28T15:26:56;20.30;80.10
32293;DHT22;43233;48.608;8.838;2023-07-28T15:29:22;20.30;80.40
32293;DHT22;43233;48.608;8.838;2023-07-28T15:31:48;20.20;80.40
32293;DHT22;43233;48.608;8.838;2023-07-28T15:34:13;20.20;80.50
32293;DHT22;43233;48.608;8.838;2023-07-28T15:36:39;20.10;81.20
32293;DHT22;43233;48.608;8.838;2023-07-28T15:39:05;20.10;81.20
32293;DHT22;43233;48.608;8.838;2023-07-28T15:41:30;20.10;81.30
32293;DHT22;43233;48.608;8.838;2023-07-28T15:43:56;20.10;81.30
32293;DHT22;43233;48.608;8.838;2023-07-28T15:46:22;20.00;81.40
32293;DHT22;43233;48.608;8.838;2023-07-28T15:48:47;20.10;81.30